createdAt,value
2017-05-25T00:00:30.559Z,7.04
2017-05-25T00:02:58.199Z,6.36
2017-05-25T00:05:26.562Z,8.26
2017-05-25T00:07:54.930Z,10.58
2017-05-25T00:10:23.290Z,7.58
2017-05-25T00:12:51.719Z,8.90
2017-05-25T00:15:20.098Z,13.16
2017-05-25T00:17:48.447Z,16.60
2017-05-25T00:20:16.838Z,9.76
2017-05-25T00:22:45.183Z,9.54
2017-05-25T00:25:13.527Z,7.92
2017-05-25T00:27:41.913Z,8.16
2017-05-25T00:30:10.281Z,11.18
2017-05-25T00:32:38.644Z,9.18
2017-05-25T00:35:07.006Z,7.96
2017-05-25T00:37:35.426Z,10.02
2017-05-25T00:40:03.758Z,8.46
2017-05-25T00:42:32.124Z,11.44
2017-05-25T00:45:00.511Z,9.56
2017-05-25T00:47:28.871Z,7.84
2017-05-25T00:49:57.230Z,10.40
2017-05-25T00:52:25.694Z,10.48
2017-05-25T00:54:54.168Z,8.52
2017-05-25T00:57:22.635Z,9.06
2017-05-25T00:59:50.983Z,10.98
2017-05-25T01:02:19.356Z,11.76
2017-05-25T01:04:47.847Z,9.40
2017-05-25T01:07:16.202Z,9.80
2017-05-25T01:09:44.538Z,10.30
2017-05-25T01:12:12.908Z,12.06
2017-05-25T01:14:41.274Z,12.84
2017-05-25T01:17:09.656Z,12.54
2017-05-25T01:19:38.016Z,10.48
2017-05-25T01:22:06.374Z,12.48
2017-05-25T01:24:34.727Z,9.14
2017-05-25T01:27:03.269Z,9.20
2017-05-25T01:29:31.627Z,9.68
2017-05-25T01:31:59.999Z,11.84
2017-05-25T01:34:28.340Z,9.28
2017-05-25T01:36:56.744Z,10.72
2017-05-25T01:39:25.088Z,11.46
2017-05-25T01:41:53.494Z,10.52
2017-05-25T01:44:21.873Z,9.94
2017-05-25T01:46:50.213Z,11.36
2017-05-25T01:49:18.567Z,12.24
2017-05-25T01:51:46.935Z,11.74
2017-05-25T01:54:15.277Z,15.18
2017-05-25T01:56:43.638Z,12.18
2017-05-25T01:59:12.151Z,11.74
2017-05-25T02:01:40.478Z,10.46
2017-05-25T02:04:08.863Z,13.94
2017-05-25T02:06:37.235Z,11.76
2017-05-25T02:09:05.616Z,13.32
2017-05-25T02:11:33.978Z,11.22
2017-05-25T02:14:02.388Z,15.54
2017-05-25T02:16:30.722Z,19.16
2017-05-25T02:18:59.106Z,14.66
2017-05-25T02:21:27.455Z,13.32
2017-05-25T02:23:55.791Z,14.84
2017-05-25T02:26:24.171Z,14.96
2017-05-25T02:28:52.520Z,12.56
2017-05-25T02:31:20.862Z,13.08
2017-05-25T02:33:49.235Z,14.92
2017-05-25T02:36:17.588Z,15.78
2017-05-25T02:38:45.950Z,13.34
2017-05-25T02:41:14.331Z,14.92
2017-05-25T02:43:42.687Z,15.52
2017-05-25T02:46:11.055Z,15.28
2017-05-25T02:48:39.412Z,15.46
2017-05-25T02:51:07.780Z,14.54
2017-05-25T02:53:36.123Z,13.78
2017-05-25T02:56:03.791Z,16.08
2017-05-25T02:58:32.143Z,15.18
2017-05-25T03:01:00.531Z,18.02
2017-05-25T03:03:28.880Z,18.58
2017-05-25T03:05:57.233Z,20.04
2017-05-25T03:08:25.613Z,17.00
2017-05-25T03:10:53.979Z,18.16
2017-05-25T03:13:22.342Z,16.48
2017-05-25T03:15:50.774Z,17.32
2017-05-25T03:18:19.140Z,17.54
2017-05-25T03:20:47.493Z,22.54
2017-05-25T03:23:15.866Z,16.96
2017-05-25T03:25:44.369Z,18.88
2017-05-25T03:28:12.749Z,18.92
2017-05-25T03:30:41.128Z,18.32
2017-05-25T03:33:09.487Z,17.64
2017-05-25T03:35:37.856Z,19.32
2017-05-25T03:38:06.207Z,17.64
2017-05-25T03:40:34.588Z,22.60
2017-05-25T03:43:02.933Z,20.80
2017-05-25T03:45:31.287Z,19.56
2017-05-25T03:47:59.682Z,17.92
2017-05-25T03:50:28.068Z,18.24
2017-05-25T03:52:56.412Z,19.06
2017-05-25T03:55:24.791Z,16.96
2017-05-25T03:57:53.155Z,18.56
2017-05-25T04:00:21.514Z,18.80
2017-05-25T04:02:49.899Z,21.34
2017-05-25T04:05:18.258Z,19.36
2017-05-25T04:07:46.626Z,19.98
2017-05-25T04:10:14.993Z,20.20
2017-05-25T04:12:43.349Z,19.60
2017-05-25T04:15:11.731Z,23.02
2017-05-25T04:17:40.081Z,19.40
2017-05-25T04:20:08.438Z,21.22
2017-05-25T04:22:36.814Z,21.42
2017-05-25T04:25:05.167Z,21.60
2017-05-25T04:27:33.646Z,17.72
2017-05-25T04:30:02.587Z,18.40
2017-05-25T04:32:30.944Z,17.80
2017-05-25T04:34:59.306Z,20.76
2017-05-25T04:37:27.694Z,19.78
2017-05-25T04:39:56.059Z,20.86
2017-05-25T04:42:24.446Z,24.52
2017-05-25T04:44:52.840Z,21.62
2017-05-25T04:47:21.195Z,19.36
2017-05-25T04:49:49.572Z,22.30
2017-05-25T04:52:18.043Z,22.74
2017-05-25T04:54:46.389Z,22.34
2017-05-25T04:57:14.780Z,23.64
2017-05-25T04:59:43.126Z,21.28
2017-05-25T05:02:11.494Z,21.72
2017-05-25T05:04:39.851Z,20.88
2017-05-25T05:07:08.202Z,21.90
2017-05-25T05:09:36.571Z,21.78
2017-05-25T05:12:04.914Z,20.26
2017-05-25T05:14:33.363Z,20.20
2017-05-25T05:17:01.741Z,23.76
2017-05-25T05:19:30.102Z,19.12
2017-05-25T05:21:58.498Z,21.68
2017-05-25T05:24:26.858Z,22.28
2017-05-25T05:26:55.214Z,23.80
2017-05-25T05:29:23.657Z,20.30
2017-05-25T05:31:52.092Z,21.38
2017-05-25T05:34:20.453Z,24.92
2017-05-25T05:36:48.862Z,24.06
2017-05-25T05:39:17.211Z,19.72
2017-05-25T05:41:45.559Z,22.38
2017-05-25T05:44:13.929Z,21.68
2017-05-25T05:46:42.287Z,19.26
2017-05-25T05:49:09.879Z,19.84
2017-05-25T05:51:38.275Z,17.74
2017-05-25T05:54:06.631Z,17.82
2017-05-25T05:56:35.000Z,21.88
2017-05-25T05:59:03.393Z,17.44
2017-05-25T06:01:31.838Z,19.40
2017-05-25T06:04:00.187Z,18.88
2017-05-25T06:06:28.558Z,15.16
2017-05-25T06:08:56.927Z,14.94
2017-05-25T06:11:25.287Z,13.66
2017-05-25T06:13:53.640Z,16.46
2017-05-25T06:16:22.003Z,14.76
2017-05-25T06:18:50.377Z,18.30
2017-05-25T06:21:18.735Z,16.04
2017-05-25T06:23:47.127Z,15.80
2017-05-25T06:26:15.507Z,16.94
2017-05-25T06:28:43.855Z,14.68
2017-05-25T06:31:12.199Z,14.88
2017-05-25T06:33:40.560Z,14.44
2017-05-25T06:36:08.930Z,13.22
2017-05-25T06:38:37.291Z,17.02
2017-05-25T06:41:05.660Z,16.78
2017-05-25T06:43:34.010Z,14.90
2017-05-25T06:46:02.396Z,16.50
2017-05-25T06:48:30.748Z,15.22
2017-05-25T06:50:59.121Z,15.32
2017-05-25T06:53:27.504Z,17.28
2017-05-25T06:55:55.855Z,14.10
2017-05-25T06:58:24.220Z,16.10
2017-05-25T07:00:52.608Z,15.72
2017-05-25T07:03:20.971Z,18.42
2017-05-25T07:05:49.383Z,16.64
2017-05-25T07:08:17.767Z,18.42
2017-05-25T07:10:46.153Z,15.82
2017-05-25T07:13:14.519Z,16.94
2017-05-25T07:15:42.895Z,18.76
2017-05-25T07:18:11.417Z,17.42
2017-05-25T07:20:39.789Z,18.30
2017-05-25T07:23:08.167Z,14.90
2017-05-25T07:25:36.514Z,19.96
2017-05-25T07:28:04.119Z,18.66
2017-05-25T07:30:32.528Z,15.16
2017-05-25T07:33:00.882Z,15.84
2017-05-25T07:35:29.298Z,13.68
2017-05-25T07:37:57.663Z,15.78
2017-05-25T07:40:26.023Z,12.96
2017-05-25T07:42:54.410Z,13.66
2017-05-25T07:45:22.774Z,13.22
2017-05-25T07:47:51.149Z,13.80
2017-05-25T07:50:19.512Z,17.50
2017-05-25T07:52:47.865Z,20.52
2017-05-25T07:55:16.243Z,22.82
2017-05-25T07:57:44.613Z,25.70
2017-05-25T08:00:12.975Z,34.24
2017-05-25T08:02:41.321Z,38.76
2017-05-25T08:05:09.711Z,41.06
2017-05-25T08:07:38.191Z,56.94
2017-05-25T08:12:41.250Z,67.06
2017-05-25T08:15:09.703Z,70.98
2017-05-25T08:17:38.110Z,69.38
2017-05-25T08:20:06.483Z,59.30
2017-05-25T08:22:34.851Z,50.88
2017-05-25T08:25:03.250Z,46.52
2017-05-25T08:27:31.644Z,39.64
2017-05-25T08:30:00.018Z,36.76
2017-05-25T08:32:28.394Z,35.68
2017-05-25T08:34:56.763Z,41.00
2017-05-25T08:37:25.198Z,35.52
2017-05-25T08:39:53.577Z,33.16
2017-05-25T08:42:21.946Z,33.84
2017-05-25T08:44:49.569Z,38.06
2017-05-25T08:47:17.938Z,36.12
2017-05-25T08:49:46.304Z,31.40
2017-05-25T08:52:14.706Z,34.60
2017-05-25T08:54:43.076Z,33.58
2017-05-25T08:57:11.434Z,35.66
2017-05-25T08:59:39.809Z,34.94
2017-05-25T09:02:08.225Z,40.36
2017-05-25T09:04:36.684Z,37.32
2017-05-25T09:07:05.108Z,36.52
2017-05-25T09:09:33.475Z,35.76
2017-05-25T09:12:01.840Z,34.70
2017-05-25T09:14:30.223Z,37.78
2017-05-25T09:16:57.886Z,29.84
2017-05-25T09:19:26.280Z,26.50
2017-05-25T09:21:54.635Z,34.34
2017-05-25T09:24:23.045Z,35.04
2017-05-25T09:26:51.427Z,24.00
2017-05-25T09:29:19.823Z,26.80
2017-05-25T09:31:48.208Z,19.82
2017-05-25T09:34:16.600Z,17.32
2017-05-25T09:36:44.959Z,15.66
2017-05-25T09:39:13.332Z,16.20
2017-05-25T09:41:41.699Z,16.54
2017-05-25T09:44:10.934Z,14.52
2017-05-25T09:46:39.332Z,15.98
2017-05-25T09:49:07.718Z,15.88
2017-05-25T09:51:36.077Z,15.96
2017-05-25T09:54:04.485Z,13.16
2017-05-25T09:56:32.840Z,14.38
2017-05-25T09:59:01.396Z,14.24
2017-05-25T10:01:29.803Z,13.58
2017-05-25T10:03:58.292Z,13.38
2017-05-25T10:06:27.060Z,12.94
2017-05-25T10:08:55.433Z,12.96
2017-05-25T10:11:23.811Z,12.88
2017-05-25T10:13:52.388Z,13.74
2017-05-25T10:16:20.736Z,15.90
2017-05-25T10:18:49.091Z,12.78
2017-05-25T10:21:17.475Z,12.38
2017-05-25T10:23:45.845Z,12.50
2017-05-25T10:26:14.212Z,12.64
2017-05-25T10:28:42.588Z,12.94
2017-05-25T10:31:10.947Z,11.16
2017-05-25T10:33:39.333Z,11.10
2017-05-25T10:36:07.715Z,12.28
2017-05-25T10:38:36.077Z,11.42
2017-05-25T10:41:04.492Z,12.44
2017-05-25T10:43:32.880Z,12.96
2017-05-25T10:46:01.251Z,12.36
2017-05-25T10:48:30.214Z,9.96
2017-05-25T10:50:58.599Z,13.20
2017-05-25T10:53:26.970Z,11.80
2017-05-25T10:58:33.294Z,11.42
2017-05-25T11:01:01.665Z,16.82
2017-05-25T11:03:30.035Z,12.50
2017-05-25T11:05:58.447Z,11.68
2017-05-25T11:08:27.251Z,11.60
2017-05-25T11:11:00.344Z,11.04
2017-05-25T11:13:29.008Z,10.54
2017-05-25T11:15:59.556Z,13.34
2017-05-25T11:18:28.018Z,16.24
2017-05-25T11:20:56.480Z,13.34
2017-05-25T11:23:24.965Z,14.82
2017-05-25T11:25:57.358Z,16.14
2017-05-25T11:28:26.371Z,12.42
2017-05-25T11:30:57.175Z,14.32
2017-05-25T11:33:25.575Z,14.10
2017-05-25T11:35:53.180Z,13.86
2017-05-25T11:38:21.564Z,13.50
2017-05-25T11:40:50.004Z,12.54
2017-05-25T11:43:18.378Z,12.74
2017-05-25T11:45:46.773Z,16.30
2017-05-25T11:48:15.142Z,15.44
2017-05-25T11:50:43.500Z,13.38
2017-05-25T11:53:11.882Z,13.48
2017-05-25T11:55:40.313Z,10.22
2017-05-25T11:58:08.663Z,13.66
2017-05-25T12:00:37.068Z,11.68
2017-05-25T12:03:05.411Z,11.90
2017-05-25T12:05:33.015Z,11.80
2017-05-25T12:08:01.404Z,12.96
2017-05-25T12:10:29.763Z,12.90
2017-05-25T12:12:58.265Z,15.38
2017-05-25T12:15:26.632Z,12.84
2017-05-25T12:17:55.083Z,15.16
2017-05-25T12:20:23.444Z,12.58
2017-05-25T12:22:51.801Z,11.22
2017-05-25T12:25:20.172Z,9.70
2017-05-25T12:27:48.535Z,9.90
2017-05-25T12:30:16.871Z,15.70
2017-05-25T12:32:45.246Z,10.80
2017-05-25T12:35:13.606Z,9.92
2017-05-25T12:37:41.991Z,10.08
2017-05-25T12:40:10.364Z,11.98
2017-05-25T12:42:38.720Z,10.84
2017-05-25T12:45:07.057Z,8.46
2017-05-25T12:47:35.419Z,12.20
2017-05-25T12:50:03.879Z,11.14
2017-05-25T12:52:32.260Z,10.96
2017-05-25T12:55:00.660Z,10.60
2017-05-25T12:57:29.016Z,8.54
2017-05-25T12:59:57.478Z,11.40
2017-05-25T13:02:26.043Z,8.72
2017-05-25T13:04:53.625Z,9.16
2017-05-25T13:07:21.965Z,10.10
2017-05-25T13:09:50.490Z,9.84
2017-05-25T13:12:18.867Z,9.74
2017-05-25T13:14:47.238Z,11.76
2017-05-25T13:17:15.664Z,6.90
2017-05-25T13:19:44.033Z,8.02
2017-05-25T13:22:12.411Z,10.18
2017-05-25T13:24:40.811Z,10.40
2017-05-25T13:27:09.303Z,9.68
2017-05-25T13:29:37.710Z,10.36
2017-05-25T13:32:06.122Z,11.64
2017-05-25T13:34:34.487Z,12.64
2017-05-25T13:37:02.848Z,10.88
2017-05-25T13:39:31.237Z,8.64
2017-05-25T13:42:06.027Z,6.66
2017-05-25T13:44:34.425Z,7.06
2017-05-25T13:47:05.696Z,8.00
2017-05-25T13:49:33.279Z,7.74
2017-05-25T13:52:01.696Z,11.60
2017-05-25T13:54:29.316Z,7.70
2017-05-25T13:57:08.245Z,7.64
2017-05-25T13:59:36.711Z,6.24
2017-05-25T14:02:05.129Z,5.46
2017-05-25T14:04:33.496Z,4.52
2017-05-25T14:07:02.110Z,6.32
2017-05-25T14:09:30.475Z,5.28
2017-05-25T14:11:58.829Z,5.64
2017-05-25T14:14:27.232Z,5.54
2017-05-25T14:16:55.577Z,4.72
2017-05-25T14:19:23.955Z,5.08
2017-05-25T14:21:52.422Z,4.60
2017-05-25T14:24:20.803Z,6.16
2017-05-25T14:26:49.454Z,4.30
2017-05-25T14:29:17.817Z,7.56
2017-05-25T14:31:46.267Z,6.60
2017-05-25T14:34:13.940Z,5.22
2017-05-25T14:36:42.287Z,5.56
2017-05-25T14:39:10.654Z,6.54
2017-05-25T14:41:39.037Z,8.50
2017-05-25T14:44:06.643Z,5.42
2017-05-25T14:46:35.027Z,6.48
2017-05-25T14:49:03.379Z,7.14
2017-05-25T14:51:31.744Z,5.78
2017-05-25T14:54:00.121Z,7.82
2017-05-25T14:56:29.041Z,9.06
2017-05-25T14:58:57.456Z,8.26
2017-05-25T15:01:25.803Z,8.38
2017-05-25T15:03:54.147Z,8.50
2017-05-25T15:06:22.540Z,6.94
2017-05-25T15:08:50.127Z,9.40
2017-05-25T15:11:18.507Z,9.46
2017-05-25T15:13:46.861Z,8.24
2017-05-25T15:16:15.255Z,6.96
2017-05-25T15:18:43.615Z,10.04
2017-05-25T15:21:11.989Z,9.50
2017-05-25T15:23:40.351Z,7.36
2017-05-25T15:26:09.077Z,6.40
2017-05-25T15:28:37.419Z,7.76
2017-05-25T15:31:05.760Z,7.40
2017-05-25T15:33:34.148Z,8.80
2017-05-25T15:36:02.496Z,6.24
2017-05-25T15:38:30.889Z,6.88
2017-05-25T15:40:59.268Z,9.04
2017-05-25T15:43:27.627Z,13.20
2017-05-25T15:45:56.028Z,5.78
2017-05-25T15:48:24.403Z,6.30
2017-05-25T15:50:52.814Z,7.46
2017-05-25T15:53:21.979Z,4.70
2017-05-25T15:55:51.328Z,6.46
2017-05-25T15:58:19.715Z,6.56
2017-05-25T16:00:48.090Z,10.48
2017-05-25T16:03:16.475Z,7.20
2017-05-25T16:05:44.842Z,7.42
2017-05-25T16:08:13.194Z,7.52
2017-05-25T16:10:41.569Z,5.50
2017-05-25T16:13:09.939Z,5.80
2017-05-25T16:15:38.394Z,7.62
2017-05-25T16:18:06.007Z,5.68
2017-05-25T16:20:34.423Z,8.70
2017-05-25T16:23:03.321Z,6.12
2017-05-25T16:25:31.707Z,7.04
2017-05-25T16:28:00.095Z,7.02
2017-05-25T16:30:28.450Z,8.64
2017-05-25T16:32:56.852Z,8.52
2017-05-25T16:35:25.215Z,8.60
2017-05-25T16:37:53.560Z,6.02
2017-05-25T16:40:21.980Z,7.60
2017-05-25T16:42:50.347Z,7.20
2017-05-25T16:45:18.706Z,5.78
2017-05-25T16:47:47.105Z,7.88
2017-05-25T16:50:15.454Z,7.28
2017-05-25T16:52:43.848Z,8.12
2017-05-25T16:55:12.212Z,8.22
2017-05-25T16:57:40.586Z,18.74
2017-05-25T17:00:08.982Z,7.22
2017-05-25T17:02:37.376Z,8.50
2017-05-25T17:05:05.859Z,10.06
2017-05-25T17:07:34.210Z,8.36
2017-05-25T17:10:02.151Z,7.06
2017-05-25T17:12:30.507Z,5.86
2017-05-25T17:14:58.873Z,6.40
2017-05-25T17:17:27.249Z,5.74
2017-05-25T17:19:55.693Z,9.90
2017-05-25T17:22:24.083Z,7.14
2017-05-25T17:24:52.497Z,8.08
2017-05-25T17:27:41.802Z,7.00
2017-05-25T17:30:10.336Z,9.72
2017-05-25T17:32:38.746Z,9.00
2017-05-25T17:35:11.014Z,6.34
2017-05-25T17:37:39.397Z,13.12
2017-05-25T17:40:07.780Z,9.38
2017-05-25T17:42:36.456Z,6.06
2017-05-25T17:45:04.803Z,5.32
2017-05-25T17:47:33.160Z,6.52
2017-05-25T17:50:01.528Z,7.54
2017-05-25T17:52:29.898Z,5.12
2017-05-25T17:54:58.271Z,5.24
2017-05-25T17:57:37.477Z,6.14
2017-05-25T18:00:05.934Z,4.72
2017-05-25T18:02:34.337Z,4.30
2017-05-25T18:05:02.664Z,4.94
2017-05-25T18:07:31.048Z,8.36
2017-05-25T18:09:59.408Z,6.00
2017-05-25T18:12:28.739Z,6.72
2017-05-25T18:14:57.323Z,5.28
2017-05-25T18:17:25.671Z,7.54
2017-05-25T18:19:54.063Z,5.64
2017-05-25T18:22:22.405Z,7.90
2017-05-25T18:24:50.784Z,9.14
2017-05-25T18:27:19.143Z,7.12
2017-05-25T18:29:47.618Z,6.68
2017-05-25T18:32:15.970Z,6.74
2017-05-25T18:34:44.339Z,7.10
2017-05-25T18:37:12.717Z,6.98
2017-05-25T18:39:41.096Z,9.18
2017-05-25T18:42:09.452Z,8.42
2017-05-25T18:44:37.947Z,17.94
2017-05-25T18:47:05.551Z,9.02
2017-05-25T18:49:33.930Z,8.30
2017-05-25T18:52:02.317Z,8.24
2017-05-25T18:54:30.687Z,7.08
2017-05-25T18:56:59.042Z,5.94
2017-05-25T18:59:27.431Z,9.54
2017-05-25T19:01:55.793Z,7.52
2017-05-25T19:04:24.133Z,9.34
2017-05-25T19:06:52.491Z,9.46
2017-05-25T19:09:20.828Z,5.36
2017-05-25T19:11:49.299Z,5.52
2017-05-25T19:14:17.767Z,5.18
2017-05-25T19:16:47.203Z,5.24
2017-05-25T19:19:15.655Z,9.88
2017-05-25T19:21:44.036Z,5.22
2017-05-25T19:24:12.396Z,9.96
2017-05-25T19:26:40.808Z,6.46
2017-05-25T19:29:09.176Z,8.82
2017-05-25T19:31:37.550Z,8.18
2017-05-25T19:34:05.941Z,7.02
2017-05-25T19:36:34.328Z,6.20
2017-05-25T19:39:02.714Z,6.52
2017-05-25T19:41:31.055Z,9.76
2017-05-25T19:43:59.558Z,7.44
2017-05-25T19:46:27.962Z,9.12
2017-05-25T19:48:56.373Z,8.44
2017-05-25T19:51:24.821Z,8.08
2017-05-25T19:53:53.215Z,10.50
2017-05-25T19:56:21.634Z,12.00
2017-05-25T19:58:50.031Z,7.90
2017-05-25T20:01:18.403Z,12.44
2017-05-25T20:03:46.784Z,10.16
2017-05-25T20:06:15.256Z,10.46
2017-05-25T20:08:43.631Z,12.26
2017-05-25T20:11:12.142Z,9.44
2017-05-25T20:13:45.938Z,11.48
2017-05-25T20:16:14.313Z,7.42
2017-05-25T20:18:43.220Z,8.08
2017-05-25T20:21:12.600Z,10.24
2017-05-25T20:23:40.995Z,12.06
2017-05-25T20:26:09.367Z,8.02
2017-05-25T20:28:37.881Z,8.08
2017-05-25T20:31:06.262Z,6.94
2017-05-25T20:33:34.625Z,8.50
2017-05-25T20:36:03.007Z,7.58
2017-05-25T20:38:31.411Z,9.72
2017-05-25T20:40:59.941Z,9.54
2017-05-25T20:43:29.615Z,9.12
2017-05-25T20:45:58.456Z,9.52
2017-05-25T20:48:26.813Z,7.84
2017-05-25T20:50:55.240Z,6.58
2017-05-25T20:53:23.612Z,8.00
2017-05-25T20:55:51.967Z,7.46
2017-05-25T20:58:20.353Z,7.48
2017-05-25T21:00:48.721Z,10.16
2017-05-25T21:03:17.119Z,6.14
2017-05-25T21:05:45.626Z,7.30
2017-05-25T21:08:13.979Z,7.06
2017-05-25T21:10:42.353Z,7.08
2017-05-25T21:13:10.742Z,8.34
2017-05-25T21:15:39.127Z,7.80
2017-05-25T21:18:06.701Z,7.14
2017-05-25T21:20:35.084Z,9.72
2017-05-25T21:23:03.457Z,7.12
2017-05-25T21:25:31.098Z,9.12
2017-05-25T21:28:00.407Z,7.58
2017-05-25T21:30:29.019Z,8.34
2017-05-25T21:32:57.443Z,9.04
2017-05-25T21:35:25.833Z,8.20
2017-05-25T21:37:54.171Z,9.20
2017-05-25T21:40:22.603Z,7.60
2017-05-25T21:42:50.175Z,7.36
2017-05-25T21:45:18.554Z,8.10
2017-05-25T21:47:46.942Z,7.20
2017-05-25T21:50:15.299Z,8.66
2017-05-25T21:52:43.689Z,7.82
2017-05-25T21:55:12.039Z,7.08
2017-05-25T21:57:40.391Z,9.14
2017-05-25T22:00:08.768Z,7.92
2017-05-25T22:02:37.139Z,8.04
2017-05-25T22:05:05.519Z,6.58
2017-05-25T22:07:33.898Z,12.80
2017-05-25T22:10:02.303Z,7.52
2017-05-25T22:12:30.717Z,9.62
2017-05-25T22:14:59.096Z,8.18
2017-05-25T22:17:27.423Z,8.82
2017-05-25T22:19:55.855Z,6.80
2017-05-25T22:22:24.200Z,9.86
2017-05-25T22:24:52.550Z,6.92
2017-05-25T22:27:20.944Z,9.88
2017-05-25T22:29:49.283Z,9.78
2017-05-25T22:32:17.650Z,16.46
2017-05-25T22:34:46.070Z,10.78
2017-05-25T22:37:13.666Z,7.40
2017-05-25T22:39:42.063Z,7.16
2017-05-25T22:42:10.441Z,6.40
2017-05-25T22:44:38.791Z,7.76
2017-05-25T22:47:07.154Z,7.80
2017-05-25T22:49:35.516Z,9.78
2017-05-25T22:52:03.856Z,9.74
2017-05-25T22:54:32.256Z,8.70
2017-05-25T22:57:00.595Z,9.40
2017-05-25T22:59:28.973Z,9.62
2017-05-25T23:01:57.346Z,11.78
2017-05-25T23:04:25.696Z,8.16
2017-05-25T23:06:54.072Z,9.40
2017-05-25T23:09:22.427Z,8.68
2017-05-25T23:11:50.781Z,8.84
2017-05-25T23:14:18.397Z,9.94
2017-05-25T23:16:46.757Z,8.90
2017-05-25T23:19:15.130Z,9.26
2017-05-25T23:21:43.502Z,7.72
2017-05-25T23:24:11.851Z,10.00
2017-05-25T23:26:40.272Z,8.92
2017-05-25T23:29:08.622Z,8.22
2017-05-25T23:31:36.991Z,8.16
2017-05-25T23:34:05.363Z,8.36
2017-05-25T23:36:33.786Z,7.66
2017-05-25T23:39:02.138Z,8.34
2017-05-25T23:41:30.513Z,7.38
2017-05-25T23:43:58.855Z,7.72
2017-05-25T23:46:27.218Z,9.00
2017-05-25T23:48:55.607Z,7.98
2017-05-25T23:51:23.967Z,8.64
2017-05-25T23:53:52.333Z,9.58
2017-05-25T23:56:20.735Z,9.78
2017-05-25T23:58:49.161Z,8.58
